map of AUZ home
AUZ - Airport
Location
City:  Chicago/Aurora, Illinois, United States
Name:Aurora Municipal Airport
ICAO:KARR
IATA:AUZ
FAA LID:ARR

Details
Type:Airport (Airfield)
Use:Public/Civil
Latitude:4146'19"N (41.771917)
Longitude:8828'32"W (-88.475666)
Datum:WGS 1984
Elevation:712 ft (217 m)
Variation:3.24W (WMM2015v2 magnetic declination)
-0.04 annual change
Runways:3
Longest:6501 × 100 ft (1982 × 30.5 m), paved

Time
Time Zone:UTC-6 (DST-5)
Local Time:

Weather
METAR:KARR 041419Z 17007KT 2 1/2SM -RA BR SCT012 BKN028 OVC040 06/04 A2968 RMK AO2 P0000 T00560044

Related Locations
Nearby:
Farthest:YAUG: 11059 mi / 17798 km
Augusta [Augusta Airport], WA, AU

Find:

   beyond  
but within

Other Information
Maps:
NOTAMs:
Links:
Sources:

  
  • flag of United States
  • flag of Illinois
  

Airport Diagram

Airport diagram for AUZ

Airport diagram PDF from FAA

Sectional Chart

Flight Planning
at skyvector.com

Satellite Image

Google Maps Satellite view

 

Copyright © 2004-2019 Karl L. Swartz. All rights reserved.
The Great Circle Mapper name and logo are trademarks of the Great Circle Mapper.
All other trademarks mentioned herein belong to their respective owners.
Please see credits for attibutions and further copyright information.

  Follow gcmap on Facebook Follow gcmap on Twitter GCmap on LinkedIn

hCard Microformat

Geo Microformat